createdAt,value
2023-03-31T00:00:47.709Z,7.20
2023-03-31T00:03:22.471Z,7.20
2023-03-31T00:05:53.557Z,7.30
2023-03-31T00:08:22.725Z,7.40
2023-03-31T00:10:50.493Z,7.40
2023-03-31T00:13:18.252Z,7.30
2023-03-31T00:15:46.120Z,7.50
2023-03-31T00:18:13.895Z,7.50
2023-03-31T00:20:43.005Z,7.70
2023-03-31T00:23:11.205Z,7.60
2023-03-31T00:25:42.228Z,7.60
2023-03-31T00:28:10.004Z,7.60
2023-03-31T00:30:37.781Z,7.50
2023-03-31T00:33:05.606Z,7.40
2023-03-31T00:35:33.436Z,7.50
2023-03-31T00:38:01.279Z,7.40
2023-03-31T00:40:29.137Z,7.50
2023-03-31T00:42:58.279Z,7.50
2023-03-31T00:45:28.417Z,7.60
2023-03-31T00:47:58.575Z,7.60
2023-03-31T00:50:28.956Z,7.60
2023-03-31T00:52:58.337Z,7.50
2023-03-31T00:55:28.840Z,7.50
2023-03-31T00:57:57.943Z,7.50
2023-03-31T01:00:25.781Z,7.50
2023-03-31T01:02:56.137Z,7.50
2023-03-31T01:05:25.085Z,7.60
2023-03-31T01:07:52.998Z,7.60
2023-03-31T01:10:21.699Z,7.60
2023-03-31T01:12:51.110Z,7.50
2023-03-31T01:15:20.371Z,7.60
2023-03-31T01:17:50.304Z,7.60
2023-03-31T01:20:21.298Z,7.40
2023-03-31T01:23:22.551Z,7.50
2023-03-31T01:26:38.525Z,7.60
2023-03-31T01:29:09.643Z,7.80
2023-03-31T01:31:48.487Z,8.00
2023-03-31T01:34:36.259Z,8.00
2023-03-31T01:37:39.746Z,8.10
2023-03-31T01:40:28.077Z,8.10
2023-03-31T01:42:57.448Z,8.10
2023-03-31T01:45:30.171Z,8.10
2023-03-31T01:47:59.173Z,8.10
2023-03-31T01:50:28.966Z,8.10
2023-03-31T01:53:53.685Z,8.10
2023-03-31T01:56:25.440Z,8.10
2023-03-31T01:58:55.456Z,8.20
2023-03-31T02:01:26.340Z,8.20
2023-03-31T02:03:56.014Z,8.30
2023-03-31T02:06:25.548Z,8.10
2023-03-31T02:08:55.525Z,8.10
2023-03-31T02:11:24.687Z,8.00
2023-03-31T02:13:53.853Z,8.20
2023-03-31T02:16:24.429Z,8.10
2023-03-31T02:18:53.011Z,8.20
2023-03-31T02:21:22.729Z,8.20
2023-03-31T02:23:50.831Z,8.20
2023-03-31T02:26:21.553Z,8.20
2023-03-31T02:28:50.707Z,8.30
2023-03-31T02:31:28.364Z,8.30
2023-03-31T02:33:56.463Z,8.40
2023-03-31T02:36:24.329Z,8.30
2023-03-31T02:38:53.624Z,8.10
2023-03-31T02:41:21.407Z,8.20
2023-03-31T02:43:50.583Z,8.50
2023-03-31T02:46:18.432Z,8.40
2023-03-31T02:48:47.982Z,8.40
2023-03-31T02:51:48.883Z,8.30
2023-03-31T02:54:37.752Z,8.40
2023-03-31T02:57:19.931Z,8.40
2023-03-31T02:59:54.945Z,8.40
2023-03-31T03:02:25.535Z,8.20
2023-03-31T03:05:02.263Z,8.20
2023-03-31T03:07:33.806Z,8.10
2023-03-31T03:10:03.535Z,8.00
2023-03-31T03:12:35.157Z,7.80
2023-03-31T03:15:06.977Z,7.80
2023-03-31T03:17:36.201Z,7.70
2023-03-31T03:20:08.037Z,7.70
2023-03-31T03:22:36.242Z,7.70
2023-03-31T03:25:04.253Z,7.80
2023-03-31T03:27:32.743Z,7.70
2023-03-31T03:30:02.694Z,7.60
2023-03-31T03:32:33.800Z,7.70
2023-03-31T03:35:01.697Z,7.70
2023-03-31T03:37:30.433Z,7.70
2023-03-31T03:39:58.341Z,7.70
2023-03-31T03:42:26.134Z,7.70
2023-03-31T03:44:53.934Z,7.60
2023-03-31T03:47:21.742Z,7.60
2023-03-31T03:49:50.907Z,7.50
2023-03-31T03:52:18.698Z,7.60
2023-03-31T03:54:46.505Z,7.50
2023-03-31T03:57:14.360Z,7.60
2023-03-31T03:59:42.226Z,7.40
2023-03-31T04:02:10.097Z,7.30
2023-03-31T04:04:38.046Z,7.40
2023-03-31T04:07:07.319Z,7.40
2023-03-31T04:09:35.124Z,7.60
2023-03-31T04:12:02.968Z,7.70
2023-03-31T04:14:30.792Z,7.60
2023-03-31T04:16:58.655Z,7.60
2023-03-31T04:19:27.584Z,7.60
2023-03-31T04:22:02.922Z,7.70
2023-03-31T04:24:33.065Z,7.80
2023-03-31T04:27:03.096Z,7.80
2023-03-31T04:29:33.689Z,7.70
2023-03-31T04:32:01.842Z,7.60
2023-03-31T04:34:35.471Z,7.70
2023-03-31T04:37:03.831Z,7.50
2023-03-31T04:39:33.011Z,7.60
2023-03-31T04:42:01.293Z,7.60
2023-03-31T04:44:29.350Z,7.50
2023-03-31T04:46:58.766Z,7.60
2023-03-31T04:49:26.656Z,7.60
2023-03-31T04:51:54.472Z,7.60
2023-03-31T04:54:22.440Z,7.50
2023-03-31T04:56:51.612Z,7.50
2023-03-31T04:59:19.451Z,7.50
2023-03-31T05:01:48.052Z,7.50
2023-03-31T05:04:15.993Z,7.50
2023-03-31T05:06:43.814Z,7.60
2023-03-31T05:09:11.633Z,7.50
2023-03-31T05:11:39.449Z,7.50
2023-03-31T05:14:08.668Z,7.50
2023-03-31T05:16:36.982Z,7.40
2023-03-31T05:19:05.024Z,7.30
2023-03-31T05:21:32.898Z,7.40
2023-03-31T05:24:00.770Z,7.30
2023-03-31T05:26:28.583Z,7.30
2023-03-31T05:28:56.441Z,7.40
2023-03-31T05:31:26.248Z,7.40
2023-03-31T05:33:55.961Z,7.30
2023-03-31T05:36:24.425Z,7.30
2023-03-31T05:38:52.585Z,7.40
2023-03-31T05:41:21.308Z,7.40
2023-03-31T05:43:49.310Z,7.40
2023-03-31T05:46:18.432Z,7.40
2023-03-31T05:48:47.712Z,7.40
2023-03-31T05:51:15.542Z,7.40
2023-03-31T05:53:44.022Z,7.50
2023-03-31T05:56:12.206Z,7.60
2023-03-31T05:58:40.051Z,7.80
2023-03-31T06:01:10.035Z,7.90
2023-03-31T06:03:39.983Z,8.10
2023-03-31T06:06:09.801Z,8.20
2023-03-31T06:08:37.859Z,8.20
2023-03-31T06:11:06.841Z,8.20
2023-03-31T06:13:35.016Z,8.30
2023-03-31T06:16:02.949Z,8.40
2023-03-31T06:18:31.635Z,8.40
2023-03-31T06:20:59.565Z,8.40
2023-03-31T06:23:28.734Z,8.50
2023-03-31T06:25:59.964Z,8.40
2023-03-31T06:28:27.773Z,8.40
2023-03-31T06:31:01.595Z,8.50
2023-03-31T06:33:29.411Z,8.60
2023-03-31T06:35:57.696Z,8.60
2023-03-31T06:38:26.108Z,9.00
2023-03-31T06:40:55.293Z,8.90
2023-03-31T06:43:23.089Z,8.90
2023-03-31T06:45:53.378Z,9.00
2023-03-31T06:48:21.842Z,9.00
2023-03-31T06:50:49.656Z,9.00
2023-03-31T06:53:17.496Z,9.00
2023-03-31T06:55:45.313Z,9.00
2023-03-31T06:58:14.465Z,9.00
2023-03-31T07:00:42.292Z,9.00
2023-03-31T07:03:10.148Z,8.90
2023-03-31T07:05:38.000Z,8.90
2023-03-31T07:08:06.059Z,8.90
2023-03-31T07:10:34.184Z,9.00
2023-03-31T07:13:04.382Z,9.00
2023-03-31T07:15:34.703Z,9.30
2023-03-31T07:18:03.021Z,9.40
2023-03-31T07:20:31.090Z,9.60
2023-03-31T07:22:58.928Z,9.70
2023-03-31T07:25:26.746Z,9.80
2023-03-31T07:27:54.560Z,9.90
2023-03-31T07:30:23.038Z,9.80
2023-03-31T07:32:52.646Z,9.70
2023-03-31T07:35:20.717Z,9.60
2023-03-31T07:37:49.299Z,9.50
2023-03-31T07:40:17.984Z,9.20
2023-03-31T07:42:49.098Z,8.90
2023-03-31T07:45:17.530Z,8.90
2023-03-31T07:47:46.466Z,8.80
2023-03-31T07:50:16.118Z,8.80
2023-03-31T07:52:46.733Z,8.80
2023-03-31T07:55:15.447Z,8.90
2023-03-31T07:57:43.619Z,8.90
2023-03-31T08:00:12.881Z,8.90
2023-03-31T08:02:41.042Z,8.90
2023-03-31T08:05:09.524Z,9.00
2023-03-31T08:07:39.150Z,9.00
2023-03-31T08:10:07.843Z,9.00
2023-03-31T08:12:35.678Z,9.00
2023-03-31T08:15:03.597Z,9.00
2023-03-31T08:17:31.452Z,9.00
2023-03-31T08:20:03.732Z,9.00
2023-03-31T08:22:34.031Z,9.50
2023-03-31T08:25:03.393Z,9.50
2023-03-31T08:27:34.510Z,9.70
2023-03-31T08:30:04.665Z,9.60
2023-03-31T08:32:33.153Z,9.60
2023-03-31T08:35:01.053Z,9.50
2023-03-31T08:37:29.160Z,9.30
2023-03-31T08:39:56.996Z,9.30
2023-03-31T08:42:31.406Z,9.30
2023-03-31T08:45:00.378Z,9.30
2023-03-31T08:47:28.681Z,9.30
2023-03-31T08:49:57.722Z,9.20
2023-03-31T08:52:28.020Z,9.30
2023-03-31T08:54:57.221Z,9.40
2023-03-31T08:57:27.747Z,9.70
2023-03-31T08:59:58.320Z,10.00
2023-03-31T09:02:30.940Z,10.40
2023-03-31T09:05:07.101Z,10.60
2023-03-31T09:07:40.265Z,10.60
2023-03-31T09:10:18.506Z,10.60
2023-03-31T09:12:51.054Z,10.60
2023-03-31T09:15:20.843Z,10.70
2023-03-31T09:17:48.916Z,10.70
2023-03-31T09:20:18.708Z,10.70
2023-03-31T09:22:48.195Z,10.80
2023-03-31T09:25:17.425Z,10.80
2023-03-31T09:27:47.622Z,10.80
2023-03-31T09:30:19.172Z,10.70
2023-03-31T09:32:47.697Z,10.80
2023-03-31T09:35:17.982Z,10.70
2023-03-31T09:37:45.898Z,10.70
2023-03-31T09:40:17.019Z,10.70
2023-03-31T09:42:44.814Z,10.60
2023-03-31T09:45:17.503Z,10.60
2023-03-31T09:47:46.689Z,10.60
2023-03-31T09:50:15.272Z,10.60
2023-03-31T09:52:44.180Z,10.60
2023-03-31T09:55:32.167Z,10.60
2023-03-31T09:58:07.621Z,10.60
2023-03-31T10:00:36.885Z,10.60
2023-03-31T10:03:07.593Z,10.60
2023-03-31T10:05:37.275Z,10.60
2023-03-31T10:08:30.283Z,10.60
2023-03-31T10:10:58.794Z,10.70
2023-03-31T10:13:29.239Z,10.70
2023-03-31T10:16:04.810Z,10.70
2023-03-31T10:18:34.953Z,10.70
2023-03-31T10:21:03.569Z,10.70
2023-03-31T10:23:32.587Z,10.70
2023-03-31T10:26:00.511Z,10.70
2023-03-31T10:28:28.300Z,10.60
2023-03-31T10:31:01.307Z,10.70
2023-03-31T10:33:29.687Z,10.70
2023-03-31T10:35:58.553Z,10.70
2023-03-31T10:38:28.666Z,10.70
2023-03-31T10:40:57.382Z,10.80
2023-03-31T10:43:27.333Z,10.90
2023-03-31T10:45:56.547Z,11.00
2023-03-31T10:48:27.782Z,11.10
2023-03-31T10:50:56.293Z,11.20
2023-03-31T10:53:24.126Z,11.20
2023-03-31T10:56:03.976Z,11.20
2023-03-31T10:58:54.773Z,11.20
2023-03-31T11:01:34.222Z,11.20
2023-03-31T11:04:09.600Z,11.30
2023-03-31T11:06:45.907Z,11.40
2023-03-31T11:09:30.485Z,11.50
2023-03-31T11:12:01.722Z,11.40
2023-03-31T11:14:34.819Z,11.50
2023-03-31T11:17:05.431Z,11.40
2023-03-31T11:19:39.809Z,11.40
2023-03-31T11:22:10.957Z,11.40
2023-03-31T11:25:01.068Z,11.40
2023-03-31T11:27:36.445Z,11.30
2023-03-31T11:30:07.423Z,11.30
2023-03-31T11:32:47.136Z,11.30
2023-03-31T11:35:44.254Z,10.90
2023-03-31T11:38:26.858Z,9.80
2023-03-31T11:40:59.064Z,9.40
2023-03-31T11:43:31.200Z,9.00
2023-03-31T11:46:01.626Z,9.20
2023-03-31T11:48:36.270Z,9.30
2023-03-31T11:51:06.535Z,9.30
2023-03-31T11:53:35.401Z,9.40
2023-03-31T11:56:05.291Z,9.40
2023-03-31T11:58:36.433Z,9.50
2023-03-31T12:01:08.013Z,9.60
2023-03-31T12:03:40.011Z,9.70
2023-03-31T12:06:17.186Z,9.70
2023-03-31T12:08:48.641Z,9.90
2023-03-31T12:11:17.772Z,10.00
2023-03-31T12:13:46.992Z,10.00
2023-03-31T12:16:16.780Z,10.10
2023-03-31T12:18:48.182Z,10.10
2023-03-31T12:21:17.362Z,10.10
2023-03-31T12:23:45.638Z,10.20
2023-03-31T12:26:20.125Z,10.30
2023-03-31T12:28:47.953Z,10.30
2023-03-31T12:31:18.774Z,10.40
2023-03-31T12:33:47.611Z,10.40
2023-03-31T12:36:23.534Z,10.60
2023-03-31T12:38:59.451Z,10.60
2023-03-31T12:41:31.179Z,10.70
2023-03-31T12:44:12.030Z,10.50
2023-03-31T12:47:04.900Z,10.60
2023-03-31T12:49:50.264Z,10.40
2023-03-31T12:52:21.905Z,10.30
2023-03-31T12:55:10.663Z,10.20
2023-03-31T12:57:38.551Z,10.10
2023-03-31T13:00:24.188Z,10.00
2023-03-31T13:02:52.188Z,9.50
2023-03-31T13:05:44.615Z,9.00
2023-03-31T13:08:13.766Z,8.80
2023-03-31T13:10:55.224Z,8.80
2023-03-31T13:13:23.106Z,8.80
2023-03-31T13:15:51.849Z,8.60
2023-03-31T13:18:20.770Z,8.60
2023-03-31T13:20:48.594Z,8.50
2023-03-31T13:23:20.529Z,8.50
2023-03-31T13:25:50.265Z,8.50
2023-03-31T13:28:35.158Z,8.40
2023-03-31T13:31:03.662Z,8.50
2023-03-31T13:33:45.960Z,8.60
2023-03-31T13:36:36.070Z,8.50
2023-03-31T13:39:27.145Z,8.50
2023-03-31T13:41:57.404Z,8.60
2023-03-31T13:45:07.212Z,8.50
2023-03-31T13:48:10.791Z,8.50
2023-03-31T13:51:07.096Z,8.50
2023-03-31T13:53:46.048Z,8.50
2023-03-31T13:59:04.364Z,8.50
2023-03-31T14:01:49.943Z,8.50
2023-03-31T14:04:31.454Z,8.60
2023-03-31T14:07:00.313Z,8.60
2023-03-31T14:09:29.967Z,8.70
2023-03-31T14:12:01.082Z,8.80
2023-03-31T14:14:29.879Z,8.80
2023-03-31T14:16:59.036Z,8.90
2023-03-31T14:19:57.247Z,9.00
2023-03-31T14:22:32.466Z,9.10
2023-03-31T14:25:06.062Z,9.20
2023-03-31T14:27:45.415Z,9.50
2023-03-31T14:30:17.682Z,9.60
2023-03-31T14:32:48.461Z,9.70
2023-03-31T14:35:26.699Z,9.60
2023-03-31T14:37:54.953Z,9.60
2023-03-31T14:40:22.812Z,9.60
2023-03-31T14:42:52.206Z,9.80
2023-03-31T14:45:21.950Z,9.80
2023-03-31T14:47:57.406Z,9.80
2023-03-31T14:50:31.220Z,10.10
2023-03-31T14:52:59.651Z,10.50
2023-03-31T14:55:39.345Z,10.60
2023-03-31T14:58:22.311Z,10.80
2023-03-31T15:00:50.204Z,10.70
2023-03-31T15:03:18.082Z,10.90
2023-03-31T15:05:48.257Z,11.00
2023-03-31T15:08:18.870Z,11.00
2023-03-31T15:10:54.084Z,11.00
2023-03-31T15:13:33.749Z,11.30
2023-03-31T15:16:01.653Z,11.40
2023-03-31T15:18:29.531Z,11.20
2023-03-31T15:20:57.397Z,11.00
2023-03-31T15:23:27.375Z,10.90
2023-03-31T15:25:56.992Z,10.80
2023-03-31T15:28:26.299Z,10.70
2023-03-31T15:31:03.521Z,10.50
2023-03-31T15:33:41.639Z,10.50
2023-03-31T15:36:10.042Z,10.40
2023-03-31T15:38:37.996Z,10.50
2023-03-31T15:41:06.152Z,10.50
2023-03-31T15:43:45.836Z,10.40
2023-03-31T15:46:19.522Z,10.40
2023-03-31T15:53:19.305Z,10.40
2023-03-31T15:55:47.181Z,10.40
2023-03-31T15:58:17.329Z,10.30
2023-03-31T16:00:47.336Z,10.30
2023-03-31T16:03:17.284Z,10.20
2023-03-31T16:08:39.189Z,10.20
2023-03-31T16:11:09.860Z,10.20
2023-03-31T16:13:38.780Z,10.20
2023-03-31T16:16:09.110Z,10.20
2023-03-31T16:18:37.717Z,10.20
2023-03-31T16:21:06.466Z,10.30
2023-03-31T16:23:38.121Z,10.20
2023-03-31T16:26:06.273Z,10.30
2023-03-31T16:28:34.811Z,10.30
2023-03-31T16:31:02.719Z,10.30
2023-03-31T16:33:32.512Z,10.40
2023-03-31T16:36:00.302Z,10.40
2023-03-31T16:38:29.074Z,10.50
2023-03-31T16:40:57.665Z,10.50
2023-03-31T16:43:25.947Z,10.70
2023-03-31T16:45:54.685Z,10.70
2023-03-31T16:48:23.843Z,10.80
2023-03-31T16:50:54.207Z,10.80
2023-03-31T16:53:23.158Z,10.80
2023-03-31T16:55:51.230Z,10.70
2023-03-31T16:58:19.078Z,10.70
2023-03-31T17:00:47.218Z,10.70
2023-03-31T17:03:15.702Z,10.60
2023-03-31T17:05:44.390Z,10.60
2023-03-31T17:08:13.646Z,10.50
2023-03-31T17:10:42.005Z,10.50
2023-03-31T17:13:10.215Z,10.50
2023-03-31T17:15:38.855Z,10.50
2023-03-31T17:18:07.414Z,10.40
2023-03-31T17:20:35.585Z,10.40
2023-03-31T17:23:04.324Z,10.20
2023-03-31T17:25:34.556Z,10.10
2023-03-31T17:28:02.684Z,9.90
2023-03-31T17:30:30.646Z,9.80
2023-03-31T17:32:58.590Z,9.70
2023-03-31T17:35:26.449Z,9.50
2023-03-31T17:37:54.407Z,9.50
2023-03-31T17:40:22.461Z,9.10
2023-03-31T17:42:51.637Z,8.90
2023-03-31T17:45:19.455Z,8.60
2023-03-31T17:47:47.437Z,8.50
2023-03-31T17:50:15.343Z,8.40
2023-03-31T17:52:43.155Z,8.40
2023-03-31T17:55:11.555Z,8.30
2023-03-31T17:57:40.576Z,8.40
2023-03-31T18:00:11.161Z,8.40
2023-03-31T18:02:39.089Z,8.40
2023-03-31T18:05:08.311Z,8.40
2023-03-31T18:07:36.791Z,8.30
2023-03-31T18:10:05.795Z,8.40
2023-03-31T18:12:34.360Z,8.40
2023-03-31T18:15:03.828Z,8.40
2023-03-31T18:17:32.975Z,8.30
2023-03-31T18:20:00.791Z,8.30
2023-03-31T18:22:28.765Z,8.40
2023-03-31T18:24:56.571Z,8.30
2023-03-31T18:27:25.236Z,8.30
2023-03-31T18:29:53.174Z,8.30
2023-03-31T18:32:21.308Z,8.30
2023-03-31T18:34:50.453Z,8.30
2023-03-31T18:37:18.407Z,8.30
2023-03-31T18:39:46.294Z,8.30
2023-03-31T18:42:14.114Z,8.30
2023-03-31T18:44:42.114Z,8.30
2023-03-31T18:47:10.060Z,8.20
2023-03-31T18:49:37.978Z,8.20
2023-03-31T18:52:07.353Z,8.20
2023-03-31T18:54:35.161Z,8.20
2023-03-31T18:57:02.989Z,8.20
2023-03-31T18:59:30.727Z,8.10
2023-03-31T19:01:58.564Z,8.20
2023-03-31T19:04:26.978Z,8.10
2023-03-31T19:06:55.939Z,8.20
2023-03-31T19:09:27.713Z,8.20
2023-03-31T19:11:57.123Z,8.20
2023-03-31T19:14:25.015Z,8.30
2023-03-31T19:16:52.909Z,8.30
2023-03-31T19:19:20.873Z,8.30
2023-03-31T19:21:49.373Z,8.30
2023-03-31T19:24:17.261Z,8.40
2023-03-31T19:26:46.417Z,8.30
2023-03-31T19:29:14.380Z,8.30
2023-03-31T19:31:42.311Z,8.40
2023-03-31T19:34:11.516Z,8.40
2023-03-31T19:36:39.302Z,8.40
2023-03-31T19:39:07.487Z,8.40
2023-03-31T19:41:35.825Z,8.50
2023-03-31T19:44:04.968Z,8.50
2023-03-31T19:46:32.835Z,8.50
2023-03-31T19:49:00.626Z,8.60
2023-03-31T19:51:28.581Z,8.60
2023-03-31T19:53:56.899Z,8.60
2023-03-31T19:56:27.039Z,8.60
2023-03-31T19:58:54.928Z,8.60
2023-03-31T20:01:24.987Z,8.60
2023-03-31T20:03:53.752Z,8.60
2023-03-31T20:06:22.710Z,8.60
2023-03-31T20:08:53.130Z,8.60
2023-03-31T20:11:21.117Z,8.60
2023-03-31T20:13:49.004Z,8.60
2023-03-31T20:16:17.788Z,8.60
2023-03-31T20:18:48.317Z,8.60
2023-03-31T20:21:17.186Z,8.60
2023-03-31T20:23:45.219Z,8.60
2023-03-31T20:26:13.902Z,8.60
2023-03-31T20:28:41.887Z,8.60
2023-03-31T20:31:10.237Z,8.60
2023-03-31T20:33:38.066Z,8.60
2023-03-31T20:36:07.945Z,8.50
2023-03-31T20:38:37.040Z,8.60
2023-03-31T20:41:05.536Z,8.50
2023-03-31T20:43:33.942Z,8.50
2023-03-31T20:46:03.225Z,8.50
2023-03-31T20:48:31.858Z,8.50
2023-03-31T20:50:59.642Z,8.60
2023-03-31T20:53:28.863Z,8.60
2023-03-31T20:55:56.697Z,8.60
2023-03-31T20:58:24.502Z,8.60
2023-03-31T21:00:57.969Z,8.60
2023-03-31T21:03:26.056Z,8.60
2023-03-31T21:05:53.884Z,8.50
2023-03-31T21:08:21.674Z,8.50
2023-03-31T21:10:50.951Z,8.50
2023-03-31T21:13:18.870Z,8.50
2023-03-31T21:15:48.148Z,8.60
2023-03-31T21:18:16.772Z,8.50
2023-03-31T21:20:50.166Z,8.60
2023-03-31T21:23:17.992Z,8.60
2023-03-31T21:25:48.484Z,8.50
2023-03-31T21:28:19.818Z,8.50
2023-03-31T21:30:51.806Z,8.50
2023-03-31T21:33:20.127Z,8.40
2023-03-31T21:35:48.005Z,8.40
2023-03-31T21:38:16.651Z,8.30
2023-03-31T21:40:44.473Z,8.20
2023-03-31T21:43:12.342Z,8.20
2023-03-31T21:45:41.738Z,8.10
2023-03-31T21:48:10.491Z,8.00
2023-03-31T21:50:38.582Z,8.00
2023-03-31T21:53:06.994Z,8.00
2023-03-31T21:55:35.673Z,8.00
2023-03-31T21:58:04.477Z,7.90
2023-03-31T22:00:32.363Z,7.80
2023-03-31T22:03:22.361Z,7.80
2023-03-31T22:05:49.875Z,7.80
2023-03-31T22:08:17.699Z,7.90
2023-03-31T22:10:49.334Z,8.00
2023-03-31T22:13:17.319Z,7.90
2023-03-31T22:15:45.229Z,8.00
2023-03-31T22:18:14.394Z,7.90
2023-03-31T22:20:42.444Z,8.00
2023-03-31T22:23:10.261Z,8.00
2023-03-31T22:25:38.169Z,8.00
2023-03-31T22:28:07.226Z,8.00
2023-03-31T22:30:35.354Z,8.00
2023-03-31T22:33:03.198Z,8.00
2023-03-31T22:35:32.610Z,8.00
2023-03-31T22:38:01.367Z,8.00
2023-03-31T22:40:30.002Z,7.90
2023-03-31T22:42:58.532Z,8.00
2023-03-31T22:45:26.403Z,8.00
2023-03-31T22:47:54.234Z,8.00
2023-03-31T22:50:22.225Z,8.00
2023-03-31T22:52:51.919Z,7.90
2023-03-31T22:55:19.915Z,8.00
2023-03-31T22:57:47.831Z,8.00
2023-03-31T23:00:16.214Z,8.00
2023-03-31T23:02:44.029Z,8.00
2023-03-31T23:05:12.176Z,8.00
2023-03-31T23:07:39.954Z,8.00
2023-03-31T23:10:10.164Z,8.00
2023-03-31T23:12:37.969Z,8.00
2023-03-31T23:15:06.253Z,7.90
2023-03-31T23:17:34.084Z,8.00
2023-03-31T23:20:01.987Z,7.90
2023-03-31T23:22:29.761Z,8.00
2023-03-31T23:24:57.579Z,8.00
2023-03-31T23:27:26.706Z,8.00
2023-03-31T23:29:54.486Z,8.10
2023-03-31T23:32:22.334Z,8.10
2023-03-31T23:34:50.260Z,8.00
2023-03-31T23:37:18.936Z,8.10
2023-03-31T23:39:46.762Z,8.10
2023-03-31T23:42:19.421Z,8.10
2023-03-31T23:44:48.549Z,8.00
2023-03-31T23:47:16.401Z,8.00
2023-03-31T23:49:44.199Z,8.00
2023-03-31T23:52:12.526Z,8.00
2023-03-31T23:54:40.316Z,8.00
2023-03-31T23:57:08.210Z,7.80
2023-03-31T23:59:36.189Z,7.80
